YRSY weather

Romsey Airport
Romsey, Victoria, Australia

Public forecast

Using degrees Celsius for public forecast. Weather courtesy of forecast.io.

METAR (pilot weather report)

Closest report is Melbourne International Airport, 17.6 nm (32.6 km) SSE. Retrieved 2018/10/18 01:30 UTC (3 minutes ago):

YMML 180130Z 33016KT 9999 BKN035 SCT065 19/10 Q1014 NOSIG

TAF (pilot weather forecast)

Forecast is more than 6 hours old.

Closest forecast is Melbourne International Airport, 17.6 nm (32.6 km) SSE. Retrieved 2018/10/17 18:00 UTC (8 hours ago):

TAF YMML 171710Z 1718/1824 35012KT 9999 -SHRA FEW020 BKN040 FM172000 33014KT 9999 -SHRA SCT040 FM180400 30010KT 9999 -SHRA BKN040 FM181300 36008KT 9999 SCT040 FM182100 36014KT CAVOK